메인 페이지
METAR-TAF:

METAR-TAF

공항 :

콜초보 공항

예카테린부르크, 러시아

위도: 56-50N, 경도: 060-38E, 고도: 237m

현재 날씨관측

예보는 14분 전, 15:30시(UTC)에 발표되었습니다.
북북동6kt
온도 11°C
습도 76%
기압 1018 hPa
시정 10km 이상
고도 5000ft 상공 구름 보통, 적란운.

METAR: USSS 191530Z 03003MPS 9999 SCT050CB 11/07 Q1018 R08R/010060 R08L/010060 NOSIG RMK QFE743/0991

시각: 20:44 (15:44 UTC)

예보

예보는 1 시간 50분 전, 13:54시(UTC)에 발표되었습니다.
예보 대상 시간: 19일 15시부터 20일 15시까지 (UTC)
6kt, 순간 최대 풍속 16kt
시정: 5000m
고도 2000ft 상공 구름 보통, 적란운.
박무
일시적
19일 17시부터 20일 03시까지 (UTC)
여러 방향의 바람 2kt
시정: 0300m
고도 200ft 상공
안개
전환 중
20일 03시부터 20일 05시까지 (UTC)
6kt, 순간 최대 풍속 19kt
시정 10km 이상

TAF: USSS 191354Z 1915/2015 01003G08MPS 5000 BR SCT020CB TEMPO 1917/2003 VRB01MPS 0300 FG VV002 BECMG 2003/2005 35003G10MPS 9999 NSW

4,000개 이상의 공항 관측 자료 및 예보 (METAR 및 TAF 보고).

지도상에서 검색 가능한 기상관측소가 노란 점과 빨간 점으로 표시되어 있습니다.

기상관측소 명을 보려면 표시 위로 마우스를 이동하세요.

날씨 관측과 예보를 보려면 클릭하세요.

지도 변경 : 확대하려면 엑스 표시가 있는 녹색 버튼, 축소하려면 빼기 표시가 있는 녹색 버튼, 다음 페이지의 지도를 보려면 녹색 화살표를 클릭하세요.


METAR-TAF: